Time;durP1;ratioP1;P1;durP2;ratioP2;P2;SDS_P1;SDS_P2;PMS_P1;PMS_P2;Temp;Humidity;BMP_temperature;BMP_pressure;BME280_temperature;BME280_humidity;BME280_pressure;Samples;Min_cycle;Max_cycle;Signal;HPM_P1;HPM_P2
2021/01/26 00:00:01;;;;;;;;;;;;;;;;;;5074130;28;19925;-80
2021/01/26 00:02:27;;;;;;;;;;;;;;;;;;5071366;28;19924;-82
2021/01/26 00:04:52;;;;;;;;;;;;;;;;;;5073693;28;19932;-82
2021/01/26 00:07:18;;;;;;;;;;;;;;;;;;5071257;28;19928;-83
2021/01/26 00:09:44;;;;;;;;;;;;;;;;;;5053776;28;19925;-81
2021/01/26 00:12:11;;;;;;;;;;;;;;;;;;5050269;28;19925;-81
2021/01/26 00:14:37;;;;;;;;;;;;;;;;;;5052796;28;19939;-81
2021/01/26 00:17:03;;;;;;;;;;;;;;;;;;5052687;28;19924;-82
2021/01/26 00:19:29;;;;;;;;;;;;;;;;;;5051868;28;20328;-81
2021/01/26 00:21:55;;;;;;;;;;;;;;;;;;5052265;28;19932;-81
2021/01/26 00:24:21;;;;;;;;;;;;;;;;;;5053520;28;19978;-80
2021/01/26 00:26:47;;;;;;;;;;;;;;;;;;5073936;28;19925;-80
2021/01/26 00:29:13;;;;;;;;;;;;;;;;;;5073298;28;19924;-80
2021/01/26 00:31:39;;;;;;;;;;;;;;;;;;5070933;28;19974;-81
2021/01/26 00:34:05;;;;;;;;;;;;;;;;;;5070457;28;19925;-82
2021/01/26 00:36:31;;;;;;;;;;;;;;;;;;5068780;28;19924;-80
2021/01/26 00:38:57;;;;;;;;;;;;;;;;;;5073122;28;19932;-81
2021/01/26 00:41:23;;;;;;;;;;;;;;;;;;5046517;28;19948;-81
2021/01/26 00:43:49;;;;;;;;;;;;;;;;;;5052716;28;19929;-81
2021/01/26 00:46:14;;;;;;;;;;;;;;;;;;5049868;28;20294;-80
2021/01/26 00:48:40;;;;;;;;;;;;;;;;;;5055161;28;19928;-80
2021/01/26 00:51:06;;;;;;;;;;;;;;;;;;5059227;28;20301;-81
2021/01/26 00:53:32;;;;;;;;;;;;;;;;;;5060618;28;19931;-82
2021/01/26 00:55:58;;;;;;;;;;;;;;;;;;5056657;28;19951;-81
2021/01/26 00:58:24;;;;;;;;;;;;;;;;;;5058462;28;19951;-82
2021/01/26 01:00:50;;;;;;;;;;;;;;;;;;5060255;28;19925;-81
2021/01/26 01:03:16;;;;;;;;;;;;;;;;;;5058490;28;19936;-81
2021/01/26 01:05:42;;;;;;;;;;;;;;;;;;5058645;28;19931;-81
2021/01/26 01:08:08;;;;;;;;;;;;;;;;;;5059587;28;20332;-81
2021/01/26 01:10:36;;;;;;;;;;;;;;;;;;5060732;28;19939;-82
2021/01/26 01:13:02;;;;;;;;;;;;;;;;;;5079793;28;19925;-81
2021/01/26 01:15:28;;;;;;;;;;;;;;;;;;5078040;28;19974;-81
2021/01/26 01:17:54;;;;;;;;;;;;;;;;;;5079925;28;19931;-81
2021/01/26 01:20:20;;;;;;;;;;;;;;;;;;5079492;28;19925;-82
2021/01/26 01:22:45;;;;;;;;;;;;;;;;;;5080041;28;19928;-81
2021/01/26 01:25:11;;;;;;;;;;;;;;;;;;5075303;28;19924;-82
2021/01/26 01:27:37;;;;;;;;;;;;;;;;;;5076631;28;19946;-82
2021/01/26 01:30:03;;;;;;;;;;;;;;;;;;5078872;28;19924;-82
2021/01/26 01:32:29;;;;;;;;;;;;;;;;;;5078472;28;19950;-81
2021/01/26 01:34:55;;;;;;;;;;;;;;;;;;5079897;28;19925;-82
2021/01/26 01:37:21;;;;;;;;;;;;;;;;;;5076501;28;20247;-81
2021/01/26 01:39:47;;;;;;;;;;;;;;;;;;5081410;28;19928;-81
2021/01/26 01:42:13;;;;;;;;;;;;;;;;;;5066436;28;20290;-81
2021/01/26 01:44:39;;;;;;;;;;;;;;;;;;5060988;28;19924;-82
2021/01/26 01:47:05;;;;;;;;;;;;;;;;;;5060353;28;19947;-81
2021/01/26 01:49:31;;;;;;;;;;;;;;;;;;5061163;28;19931;-80
2021/01/26 01:51:57;;;;;;;;;;;;;;;;;;5060225;28;19996;-81
2021/01/26 01:54:23;;;;;;;;;;;;;;;;;;5057793;28;20196;-82
2021/01/26 01:56:49;;;;;;;;;;;;;;;;;;5058489;28;19932;-82
2021/01/26 01:59:15;;;;;;;;;;;;;;;;;;5058074;28;20294;-80
2021/01/26 02:01:41;;;;;;;;;;;;;;;;;;5060345;28;19979;-82
2021/01/26 02:04:07;;;;;;;;;;;;;;;;;;5059744;28;19925;-82
2021/01/26 02:06:33;;;;;;;;;;;;;;;;;;5060963;28;19925;-81
2021/01/26 02:08:59;;;;;;;;;;;;;;;;;;5062863;28;19924;-81
2021/01/26 02:11:25;;;;;;;;;;;;;;;;;;5061104;28;19924;-80
2021/01/26 02:13:50;;;;;;;;;;;;;;;;;;5074250;28;19925;-81
2021/01/26 02:16:16;;;;;;;;;;;;;;;;;;5092085;28;19931;-82
2021/01/26 02:18:42;;;;;;;;;;;;;;;;;;5093783;28;19928;-83
2021/01/26 02:21:08;;;;;;;;;;;;;;;;;;5088726;28;19925;-82
2021/01/26 02:23:34;;;;;;;;;;;;;;;;;;5081754;28;19924;-82
2021/01/26 02:26:00;;;;;;;;;;;;;;;;;;5081049;28;19924;-82
2021/01/26 02:28:26;;;;;;;;;;;;;;;;;;5073487;28;19963;-81
2021/01/26 02:30:52;;;;;;;;;;;;;;;;;;5079221;28;19925;-82
2021/01/26 02:33:18;;;;;;;;;;;;;;;;;;5077828;28;19925;-81
2021/01/26 02:35:44;;;;;;;;;;;;;;;;;;5082793;28;19947;-81
2021/01/26 02:38:10;;;;;;;;;;;;;;;;;;5085507;28;19924;-81
2021/01/26 02:40:36;;;;;;;;;;;;;;;;;;5086728;28;19928;-82
2021/01/26 02:43:02;;;;;;;;;;;;;;;;;;5085469;28;19942;-81
2021/01/26 02:45:28;;;;;;;;;;;;;;;;;;5082144;28;19931;-81
2021/01/26 02:47:54;;;;;;;;;;;;;;;;;;5089942;28;19924;-81
2021/01/26 02:50:20;;;;;;;;;;;;;;;;;;5087627;28;19924;-81
2021/01/26 02:52:46;;;;;;;;;;;;;;;;;;5090491;28;19929;-81
2021/01/26 02:55:13;;;;;;;;;;;;;;;;;;5090004;28;19949;-81
2021/01/26 02:57:39;;;;;;;;;;;;;;;;;;5090283;28;20440;-82
2021/01/26 03:00:05;;;;;;;;;;;;;;;;;;5082869;28;19950;-80
2021/01/26 03:02:31;;;;;;;;;;;;;;;;;;5081014;28;19942;-81
2021/01/26 03:04:56;;;;;;;;;;;;;;;;;;5081937;28;19936;-81
2021/01/26 03:07:22;;;;;;;;;;;;;;;;;;5079518;28;19925;-80
2021/01/26 03:09:49;;;;;;;;;;;;;;;;;;5080492;28;19924;-82
2021/01/26 03:12:15;;;;;;;;;;;;;;;;;;5080217;28;19925;-81
2021/01/26 03:14:41;;;;;;;;;;;;;;;;;;5070764;28;19925;-80
2021/01/26 03:17:07;;;;;;;;;;;;;;;;;;5059067;28;19932;-82
2021/01/26 03:19:33;;;;;;;;;;;;;;;;;;5059020;28;19950;-81
2021/01/26 03:21:59;;;;;;;;;;;;;;;;;;5059093;28;19925;-81
2021/01/26 03:24:25;;;;;;;;;;;;;;;;;;5056675;28;20382;-82
2021/01/26 03:26:51;;;;;;;;;;;;;;;;;;5057372;28;19925;-81
2021/01/26 03:29:17;;;;;;;;;;;;;;;;;;5055531;28;19924;-82
2021/01/26 03:31:43;;;;;;;;;;;;;;;;;;5066637;28;19924;-81
2021/01/26 03:34:09;;;;;;;;;;;;;;;;;;5076272;28;19931;-82
2021/01/26 03:36:35;;;;;;;;;;;;;;;;;;5076290;28;19947;-81
2021/01/26 03:39:01;;;;;;;;;;;;;;;;;;5077061;28;19925;-82
2021/01/26 03:41:27;;;;;;;;;;;;;;;;;;5076986;28;19931;-81
2021/01/26 03:43:52;;;;;;;;;;;;;;;;;;5076773;28;19950;-81
2021/01/26 03:46:18;;;;;;;;;;;;;;;;;;5067768;28;19947;-81
2021/01/26 03:48:44;;;;;;;;;;;;;;;;;;5057902;28;19932;-80
2021/01/26 03:51:10;;;;;;;;;;;;;;;;;;5073292;28;19950;-81
2021/01/26 03:53:36;;;;;;;;;;;;;;;;;;5076889;28;20389;-81
2021/01/26 03:56:02;;;;;;;;;;;;;;;;;;5077411;28;19932;-81
2021/01/26 03:58:28;;;;;;;;;;;;;;;;;;5074170;28;20286;-81
2021/01/26 04:00:54;;;;;;;;;;;;;;;;;;5077103;28;19978;-80
2021/01/26 04:03:20;;;;;;;;;;;;;;;;;;5065899;28;19925;-81
2021/01/26 04:05:46;;;;;;;;;;;;;;;;;;5057192;28;19929;-81
2021/01/26 04:08:12;;;;;;;;;;;;;;;;;;5055798;28;19925;-81
2021/01/26 04:10:38;;;;;;;;;;;;;;;;;;5055860;28;19925;-82
2021/01/26 04:13:04;;;;;;;;;;;;;;;;;;5057953;28;19924;-81
2021/01/26 04:15:30;;;;;;;;;;;;;;;;;;5058130;28;19975;-81
2021/01/26 04:17:56;;;;;;;;;;;;;;;;;;5060350;28;20304;-82
2021/01/26 04:20:22;;;;;;;;;;;;;;;;;;5080096;28;19928;-82
2021/01/26 04:22:48;;;;;;;;;;;;;;;;;;5079282;28;19924;-82
2021/01/26 04:25:14;;;;;;;;;;;;;;;;;;5076357;28;19924;-83
2021/01/26 04:27:40;;;;;;;;;;;;;;;;;;5080156;28;19948;-82
2021/01/26 04:30:06;;;;;;;;;;;;;;;;;;5081533;28;19924;-82
2021/01/26 04:32:32;;;;;;;;;;;;;;;;;;5072206;28;19939;-82
2021/01/26 04:34:57;;;;;;;;;;;;;;;;;;5060500;28;20340;-82
2021/01/26 04:37:23;;;;;;;;;;;;;;;;;;5058444;28;19929;-82
2021/01/26 04:39:49;;;;;;;;;;;;;;;;;;5060921;28;20329;-82
2021/01/26 04:42:15;;;;;;;;;;;;;;;;;;5060907;28;19925;-83
2021/01/26 04:44:41;;;;;;;;;;;;;;;;;;5060948;28;19947;-82
2021/01/26 04:47:07;;;;;;;;;;;;;;;;;;5064063;28;19925;-83
2021/01/26 04:49:33;;;;;;;;;;;;;;;;;;5065754;28;19933;-82
2021/01/26 04:51:59;;;;;;;;;;;;;;;;;;5070135;28;19925;-82
2021/01/26 04:54:25;;;;;;;;;;;;;;;;;;5067742;28;19924;-81
2021/01/26 04:56:51;;;;;;;;;;;;;;;;;;5068539;28;19929;-82
2021/01/26 04:59:17;;;;;;;;;;;;;;;;;;5068622;28;19924;-83
2021/01/26 05:01:43;;;;;;;;;;;;;;;;;;5070392;28;19925;-83
2021/01/26 05:04:09;;;;;;;;;;;;;;;;;;5067358;28;19924;-82
2021/01/26 05:06:35;;;;;;;;;;;;;;;;;;5079738;28;19924;-82
2021/01/26 05:09:01;;;;;;;;;;;;;;;;;;5081648;28;19924;-81
2021/01/26 05:11:27;;;;;;;;;;;;;;;;;;5082680;28;19924;-82
2021/01/26 05:13:53;;;;;;;;;;;;;;;;;;5083269;28;19925;-82
2021/01/26 05:16:21;;;;;;;;;;;;;;;;;;5080360;28;20286;-81
2021/01/26 05:18:47;;;;;;;;;;;;;;;;;;5080825;28;19934;-82
2021/01/26 05:21:13;;;;;;;;;;;;;;;;;;5075423;28;19924;-83
2021/01/26 05:23:39;;;;;;;;;;;;;;;;;;5081175;28;19924;-82
2021/01/26 05:26:08;;;;;;;;;;;;;;;;;;5080933;28;19947;-82
2021/01/26 05:28:35;;;;;;;;;;;;;;;;;;5081336;28;19925;-82
2021/01/26 05:31:06;;;;;;;;;;;;;;;;;;5082037;28;19987;-81
2021/01/26 05:33:32;;;;;;;;;;;;;;;;;;5079321;28;19925;-81
2021/01/26 05:35:58;;;;;;;;;;;;;;;;;;5075192;28;19925;-82
2021/01/26 05:38:24;;;;;;;;;;;;;;;;;;5072262;28;20425;-81
2021/01/26 05:40:50;;;;;;;;;;;;;;;;;;5074196;28;19974;-82
2021/01/26 05:43:16;;;;;;;;;;;;;;;;;;5072701;28;19928;-82
2021/01/26 05:45:42;;;;;;;;;;;;;;;;;;5076659;28;19925;-82
2021/01/26 05:48:08;;;;;;;;;;;;;;;;;;5075236;28;20360;-81
2021/01/26 05:50:34;;;;;;;;;;;;;;;;;;5074670;28;19924;-82
2021/01/26 05:53:04;;;;;;;;;;;;;;;;;;5056112;28;19929;-83
2021/01/26 05:55:30;;;;;;;;;;;;;;;;;;5053522;28;19929;-81
2021/01/26 05:57:56;;;;;;;;;;;;;;;;;;5057258;28;20166;-81
2021/01/26 06:00:22;;;;;;;;;;;;;;;;;;5057030;28;19939;-80
2021/01/26 06:02:48;;;;;;;;;;;;;;;;;;5059150;28;19925;-82
2021/01/26 06:05:16;;;;;;;;;;;;;;;;;;5058811;28;19951;-81
2021/01/26 06:07:42;;;;;;;;;;;;;;;;;;5050542;28;19925;-81
2021/01/26 06:10:08;;;;;;;;;;;;;;;;;;5056141;28;19925;-84
2021/01/26 06:12:34;;;;;;;;;;;;;;;;;;5058487;28;19925;-82
2021/01/26 06:15:00;;;;;;;;;;;;;;;;;;5058857;28;19925;-82
2021/01/26 06:17:26;;;;;;;;;;;;;;;;;;5056811;28;19925;-81
2021/01/26 06:19:52;;;;;;;;;;;;;;;;;;5058330;28;19986;-81
2021/01/26 06:22:18;;;;;;;;;;;;;;;;;;5056514;28;19925;-82
2021/01/26 06:24:44;;;;;;;;;;;;;;;;;;5066806;28;19924;-82
2021/01/26 06:27:09;;;;;;;;;;;;;;;;;;5076579;28;19929;-82
2021/01/26 06:29:35;;;;;;;;;;;;;;;;;;5021241;28;1624778;-80
2021/01/26 06:32:01;;;;;;;;;;;;;;;;;;5078006;28;19947;-81
2021/01/26 06:34:27;;;;;;;;;;;;;;;;;;5075723;28;19936;-81
2021/01/26 06:36:53;;;;;;;;;;;;;;;;;;5081066;28;20010;-80
2021/01/26 06:39:19;;;;;;;;;;;;;;;;;;5059007;28;19925;-78
2021/01/26 06:41:45;;;;;;;;;;;;;;;;;;5052890;28;20385;-80
2021/01/26 06:44:11;;;;;;;;;;;;;;;;;;5053268;28;19929;-80
2021/01/26 06:46:37;;;;;;;;;;;;;;;;;;5054327;28;20721;-80
2021/01/26 06:49:03;;;;;;;;;;;;;;;;;;5051560;28;19924;-81
2021/01/26 06:51:29;;;;;;;;;;;;;;;;;;5052055;28;20638;-81
2021/01/26 06:53:55;;;;;;;;;;;;;;;;;;5052564;28;19975;-80
2021/01/26 06:56:21;;;;;;;;;;;;;;;;;;5041605;28;20707;-80
2021/01/26 06:58:47;;;;;;;;;;;;;;;;;;5053510;28;19935;-79
2021/01/26 07:01:13;;;;;;;;;;;;;;;;;;5052487;28;20386;-81
2021/01/26 07:03:39;;;;;;;;;;;;;;;;;;5057960;28;19962;-81
2021/01/26 07:06:04;;;;;;;;;;;;;;;;;;5057189;28;19932;-82
2021/01/26 07:08:30;;;;;;;;;;;;;;;;;;5058285;28;19927;-81
2021/01/26 07:10:56;;;;;;;;;;;;;;;;;;5051482;28;19944;-82
2021/01/26 07:13:22;;;;;;;;;;;;;;;;;;5058298;28;19925;-82
2021/01/26 07:15:48;;;;;;;;;;;;;;;;;;5058679;28;19925;-82
2021/01/26 07:18:14;;;;;;;;;;;;;;;;;;5060726;28;19925;-81
2021/01/26 07:20:40;;;;;;;;;;;;;;;;;;5061584;28;19936;-82
2021/01/26 07:23:06;;;;;;;;;;;;;;;;;;5059076;28;19948;-81
2021/01/26 07:25:32;;;;;;;;;;;;;;;;;;5051590;28;19932;-81
2021/01/26 07:27:58;;;;;;;;;;;;;;;;;;5074776;28;19924;-81
2021/01/26 07:30:25;;;;;;;;;;;;;;;;;;5075535;28;19924;-81
2021/01/26 07:32:51;;;;;;;;;;;;;;;;;;5075252;28;19929;-81
2021/01/26 07:35:17;;;;;;;;;;;;;;;;;;5074447;28;19932;-82
2021/01/26 07:37:43;;;;;;;;;;;;;;;;;;5074216;28;19974;-81
2021/01/26 07:40:09;;;;;;;;;;;;;;;;;;5071833;28;19924;-82
2021/01/26 07:42:35;;;;;;;;;;;;;;;;;;5055484;28;19924;-82
2021/01/26 07:45:01;;;;;;;;;;;;;;;;;;5052928;28;20283;-81
2021/01/26 07:47:27;;;;;;;;;;;;;;;;;;5049946;28;19952;-81
2021/01/26 07:49:53;;;;;;;;;;;;;;;;;;5052383;28;19932;-82
2021/01/26 07:52:19;;;;;;;;;;;;;;;;;;5064833;28;19998;-81
2021/01/26 07:54:45;;;;;;;;;;;;;;;;;;5075015;28;19925;-82
2021/01/26 07:57:11;;;;;;;;;;;;;;;;;;5067962;28;19940;-82
2021/01/26 07:59:37;;;;;;;;;;;;;;;;;;5069994;28;19936;-81
2021/01/26 08:02:02;;;;;;;;;;;;;;;;;;5074534;28;19924;-81
2021/01/26 08:04:28;;;;;;;;;;;;;;;;;;5059927;28;19925;-81
2021/01/26 08:06:54;;;;;;;;;;;;;;;;;;5065072;28;19936;-82
2021/01/26 08:09:20;;;;;;;;;;;;;;;;;;5077044;28;19924;-80
2021/01/26 08:11:46;;;;;;;;;;;;;;;;;;5067146;28;20364;-82
2021/01/26 08:14:12;;;;;;;;;;;;;;;;;;5044166;28;19933;-80
2021/01/26 08:16:38;;;;;;;;;;;;;;;;;;5055559;28;20417;-82
2021/01/26 08:19:04;;;;;;;;;;;;;;;;;;5054458;28;19999;-81
2021/01/26 08:21:30;;;;;;;;;;;;;;;;;;5052982;28;19929;-82
2021/01/26 08:23:56;;;;;;;;;;;;;;;;;;5052419;28;20096;-81
2021/01/26 08:26:23;;;;;;;;;;;;;;;;;;5065026;28;19925;-81
2021/01/26 08:28:48;;;;;;;;;;;;;;;;;;5061664;28;19989;-81
2021/01/26 08:31:14;;;;;;;;;;;;;;;;;;5052810;28;20285;-82
2021/01/26 08:33:40;;;;;;;;;;;;;;;;;;5057918;28;19929;-80
2021/01/26 08:36:06;;;;;;;;;;;;;;;;;;5057690;28;19924;-81
2021/01/26 08:38:32;;;;;;;;;;;;;;;;;;5054685;28;19935;-81
2021/01/26 08:40:58;;;;;;;;;;;;;;;;;;5055405;28;19933;-80
2021/01/26 08:43:24;;;;;;;;;;;;;;;;;;5048774;28;19932;-81
2021/01/26 08:45:50;;;;;;;;;;;;;;;;;;5055938;28;19932;-81
2021/01/26 08:48:16;;;;;;;;;;;;;;;;;;5048675;28;19925;-79
2021/01/26 08:50:45;;;;;;;;;;;;;;;;;;5047359;28;19970;-79
2021/01/26 08:53:11;;;;;;;;;;;;;;;;;;5054583;28;19972;-78
2021/01/26 08:55:37;;;;;;;;;;;;;;;;;;5051168;28;20060;-78
2021/01/26 08:58:03;;;;;;;;;;;;;;;;;;5064132;28;19931;-77
2021/01/26 09:00:29;;;;;;;;;;;;;;;;;;5046806;28;20528;-78
2021/01/26 09:02:55;;;;;;;;;;;;;;;;;;5065612;28;19924;-79
2021/01/26 09:05:21;;;;;;;;;;;;;;;;;;5050100;28;19932;-80
2021/01/26 09:07:47;;;;;;;;;;;;;;;;;;5049288;28;19928;-80
2021/01/26 09:10:13;;;;;;;;;;;;;;;;;;5050561;28;19933;-78
2021/01/26 09:12:39;;;;;;;;;;;;;;;;;;5060415;28;19944;-78
2021/01/26 09:15:05;;;;;;;;;;;;;;;;;;5042824;28;20906;-77
2021/01/26 09:17:31;;;;;;;;;;;;;;;;;;5056663;28;19925;-77
2021/01/26 09:19:57;;;;;;;;;;;;;;;;;;5066913;28;19928;-78
2021/01/26 09:22:23;;;;;;;;;;;;;;;;;;5054765;28;19931;-78
2021/01/26 09:24:49;;;;;;;;;;;;;;;;;;5062443;28;19932;-78
2021/01/26 09:27:15;;;;;;;;;;;;;;;;;;5063931;28;19928;-77
2021/01/26 09:29:40;;;;;;;;;;;;;;;;;;5070412;28;19925;-79
2021/01/26 09:32:06;;;;;;;;;;;;;;;;;;5061417;28;19949;-80
2021/01/26 09:34:32;;;;;;;;;;;;;;;;;;5073757;28;20038;-79
2021/01/26 09:36:58;;;;;;;;;;;;;;;;;;5072061;28;19924;-78
2021/01/26 09:39:24;;;;;;;;;;;;;;;;;;5060463;28;19928;-79
2021/01/26 09:41:50;;;;;;;;;;;;;;;;;;5061185;28;20300;-79
2021/01/26 09:44:16;;;;;;;;;;;;;;;;;;5057728;28;19924;-78
2021/01/26 09:46:42;;;;;;;;;;;;;;;;;;5055256;28;19925;-78
2021/01/26 09:49:08;;;;;;;;;;;;;;;;;;5056667;28;19924;-79
2021/01/26 09:51:33;;;;;;;;;;;;;;;;;;5054743;28;19932;-76
2021/01/26 09:53:59;;;;;;;;;;;;;;;;;;5051227;28;19932;-78
2021/01/26 09:56:25;;;;;;;;;;;;;;;;;;5069550;28;19925;-78
2021/01/26 09:58:51;;;;;;;;;;;;;;;;;;5052377;28;19925;-79
2021/01/26 10:01:17;;;;;;;;;;;;;;;;;;5053352;28;19939;-79
2021/01/26 10:03:43;;;;;;;;;;;;;;;;;;5045495;28;20452;-79
2021/01/26 10:06:09;;;;;;;;;;;;;;;;;;5064335;28;19924;-79
2021/01/26 10:08:35;;;;;;;;;;;;;;;;;;5065717;28;19924;-79
2021/01/26 10:11:01;;;;;;;;;;;;;;;;;;5053328;28;19924;-79
2021/01/26 10:13:27;;;;;;;;;;;;;;;;;;5048323;28;19935;-81
2021/01/26 10:15:53;;;;;;;;;;;;;;;;;;5065793;28;19924;-79
2021/01/26 10:18:19;;;;;;;;;;;;;;;;;;5059267;28;19933;-78
2021/01/26 10:20:45;;;;;;;;;;;;;;;;;;5054267;28;19935;-81
2021/01/26 10:23:11;;;;;;;;;;;;;;;;;;5048426;28;19970;-80
2021/01/26 10:25:37;;;;;;;;;;;;;;;;;;5054049;28;19936;-79
2021/01/26 10:28:03;;;;;;;;;;;;;;;;;;5057028;28;19931;-79
2021/01/26 10:30:28;;;;;;;;;;;;;;;;;;5056608;28;19931;-79
2021/01/26 10:32:54;;;;;;;;;;;;;;;;;;5060376;28;19925;-79
2021/01/26 10:35:20;;;;;;;;;;;;;;;;;;5056564;28;19928;-79
2021/01/26 10:37:46;;;;;;;;;;;;;;;;;;5055981;28;19925;-79
2021/01/26 10:40:12;;;;;;;;;;;;;;;;;;5053914;28;19924;-79
2021/01/26 10:42:38;;;;;;;;;;;;;;;;;;5065453;28;19956;-79
2021/01/26 10:45:04;;;;;;;;;;;;;;;;;;5059988;28;19928;-79
2021/01/26 10:47:30;;;;;;;;;;;;;;;;;;5056659;28;19931;-80
2021/01/26 10:49:56;;;;;;;;;;;;;;;;;;5042058;28;20297;-79
2021/01/26 10:52:22;;;;;;;;;;;;;;;;;;5051052;28;19928;-79
2021/01/26 10:54:48;;;;;;;;;;;;;;;;;;5049132;28;19924;-80
2021/01/26 10:57:14;;;;;;;;;;;;;;;;;;5054474;28;20601;-79
2021/01/26 10:59:40;;;;;;;;;;;;;;;;;;5051504;28;19925;-79
2021/01/26 11:02:06;;;;;;;;;;;;;;;;;;5047634;28;19925;-80
2021/01/26 11:04:32;;;;;;;;;;;;;;;;;;5048634;28;19924;-79
2021/01/26 11:06:58;;;;;;;;;;;;;;;;;;5053503;28;20274;-80
2021/01/26 11:09:24;;;;;;;;;;;;;;;;;;5058691;28;19931;-78
2021/01/26 11:11:50;;;;;;;;;;;;;;;;;;5047566;28;20301;-80
2021/01/26 11:14:16;;;;;;;;;;;;;;;;;;5051449;28;19954;-79
2021/01/26 11:16:42;;;;;;;;;;;;;;;;;;5052928;28;19968;-80
2021/01/26 11:19:09;;;;;;;;;;;;;;;;;;5055584;28;19924;-80
2021/01/26 11:21:35;;;;;;;;;;;;;;;;;;5054431;28;20003;-77
2021/01/26 11:24:01;;;;;;;;;;;;;;;;;;5053211;28;19931;-80
2021/01/26 11:26:27;;;;;;;;;;;;;;;;;;5063788;28;19933;-79
2021/01/26 11:28:53;;;;;;;;;;;;;;;;;;5062457;28;19994;-79
2021/01/26 11:31:19;;;;;;;;;;;;;;;;;;5050226;28;19929;-78
2021/01/26 11:33:45;;;;;;;;;;;;;;;;;;5048732;28;19929;-80
2021/01/26 11:36:11;;;;;;;;;;;;;;;;;;5054069;28;19933;-80
2021/01/26 11:38:37;;;;;;;;;;;;;;;;;;5065043;28;19928;-80
2021/01/26 11:41:04;;;;;;;;;;;;;;;;;;5049822;28;19932;-76
2021/01/26 11:43:30;;;;;;;;;;;;;;;;;;5067772;28;19955;-79
2021/01/26 11:45:56;;;;;;;;;;;;;;;;;;5056165;28;19931;-79
2021/01/26 11:48:22;;;;;;;;;;;;;;;;;;5066229;28;20452;-79
2021/01/26 11:50:48;;;;;;;;;;;;;;;;;;5065030;28;19924;-79
2021/01/26 11:53:14;;;;;;;;;;;;;;;;;;5048156;28;19924;-77
2021/01/26 11:55:40;;;;;;;;;;;;;;;;;;5046244;28;19925;-78
2021/01/26 11:58:06;;;;;;;;;;;;;;;;;;5042877;28;19978;-78
2021/01/26 12:00:32;;;;;;;;;;;;;;;;;;5058645;28;20373;-78
2021/01/26 12:02:58;;;;;;;;;;;;;;;;;;5048383;28;19928;-77
2021/01/26 12:05:24;;;;;;;;;;;;;;;;;;5045576;28;19970;-78
2021/01/26 12:07:50;;;;;;;;;;;;;;;;;;5045564;28;19932;-77
2021/01/26 12:10:16;;;;;;;;;;;;;;;;;;5057689;28;20344;-78
2021/01/26 12:12:42;;;;;;;;;;;;;;;;;;5056713;28;19932;-77
2021/01/26 12:15:08;;;;;;;;;;;;;;;;;;5049380;28;19933;-77
2021/01/26 12:17:34;;;;;;;;;;;;;;;;;;5042685;28;19929;-78
2021/01/26 12:20:01;;;;;;;;;;;;;;;;;;5052694;28;19933;-76
2021/01/26 12:22:27;;;;;;;;;;;;;;;;;;5046953;28;19933;-78
2021/01/26 12:24:53;;;;;;;;;;;;;;;;;;5059454;28;19931;-79
2021/01/26 12:27:19;;;;;;;;;;;;;;;;;;5054103;28;19932;-77
2021/01/26 12:29:45;;;;;;;;;;;;;;;;;;5056849;28;19924;-78
2021/01/26 12:32:11;;;;;;;;;;;;;;;;;;5062008;28;19932;-78
2021/01/26 12:34:37;;;;;;;;;;;;;;;;;;5054314;28;19932;-79
2021/01/26 12:37:03;;;;;;;;;;;;;;;;;;5043682;28;19925;-77
2021/01/26 12:39:29;;;;;;;;;;;;;;;;;;5039669;28;19929;-80
2021/01/26 12:41:55;;;;;;;;;;;;;;;;;;5049163;28;20313;-78
2021/01/26 12:44:20;;;;;;;;;;;;;;;;;;5053369;28;19936;-79
2021/01/26 12:46:46;;;;;;;;;;;;;;;;;;5062620;28;19924;-78
2021/01/26 12:49:12;;;;;;;;;;;;;;;;;;5059375;28;19925;-77
2021/01/26 12:51:38;;;;;;;;;;;;;;;;;;5068983;28;19932;-78
2021/01/26 12:54:05;;;;;;;;;;;;;;;;;;5044103;28;20018;-79
2021/01/26 12:56:31;;;;;;;;;;;;;;;;;;5050166;28;19942;-77
2021/01/26 12:58:56;;;;;;;;;;;;;;;;;;5060616;28;19994;-77
2021/01/26 13:01:22;;;;;;;;;;;;;;;;;;5068836;28;19924;-77
2021/01/26 13:03:48;;;;;;;;;;;;;;;;;;5064251;28;20303;-77
2021/01/26 13:06:14;;;;;;;;;;;;;;;;;;5056703;28;19932;-79
2021/01/26 13:08:40;;;;;;;;;;;;;;;;;;5068347;28;20289;-80
2021/01/26 13:11:06;;;;;;;;;;;;;;;;;;5040369;28;19941;-76
2021/01/26 13:13:32;;;;;;;;;;;;;;;;;;5045139;28;20455;-76
2021/01/26 13:15:58;;;;;;;;;;;;;;;;;;5051938;28;19933;-80
2021/01/26 13:18:24;;;;;;;;;;;;;;;;;;5070026;28;20373;-78
2021/01/26 13:20:50;;;;;;;;;;;;;;;;;;5047090;28;19925;-75
2021/01/26 13:23:17;;;;;;;;;;;;;;;;;;5059275;28;20301;-79
2021/01/26 13:25:44;;;;;;;;;;;;;;;;;;5050530;28;20409;-78
2021/01/26 13:28:10;;;;;;;;;;;;;;;;;;5060018;28;20078;-78
2021/01/26 13:30:36;;;;;;;;;;;;;;;;;;5066911;28;19928;-77
2021/01/26 13:33:02;;;;;;;;;;;;;;;;;;5064065;28;21680;-77
2021/01/26 13:35:30;;;;;;;;;;;;;;;;;;5049537;28;19936;-77
2021/01/26 13:37:56;;;;;;;;;;;;;;;;;;5060816;28;20021;-78
2021/01/26 13:40:22;;;;;;;;;;;;;;;;;;5061584;28;20381;-76
2021/01/26 13:42:48;;;;;;;;;;;;;;;;;;5050155;28;19932;-76
2021/01/26 13:45:14;;;;;;;;;;;;;;;;;;5052609;28;19947;-77
2021/01/26 13:47:40;;;;;;;;;;;;;;;;;;5057676;28;19940;-77
2021/01/26 13:50:06;;;;;;;;;;;;;;;;;;5057297;28;20289;-76
2021/01/26 13:52:31;;;;;;;;;;;;;;;;;;5057368;28;20000;-77
2021/01/26 13:54:57;;;;;;;;;;;;;;;;;;5062250;28;19933;-78
2021/01/26 13:57:23;;;;;;;;;;;;;;;;;;5060055;28;19970;-78
2021/01/26 13:59:49;;;;;;;;;;;;;;;;;;5057554;28;19925;-78
2021/01/26 14:02:15;;;;;;;;;;;;;;;;;;5059377;28;19924;-79
2021/01/26 14:04:41;;;;;;;;;;;;;;;;;;5057464;28;19924;-77
2021/01/26 14:07:07;;;;;;;;;;;;;;;;;;5049865;28;19924;-78
2021/01/26 14:09:33;;;;;;;;;;;;;;;;;;5058521;28;19928;-78
2021/01/26 14:12:01;;;;;;;;;;;;;;;;;;5052854;28;19932;-78
2021/01/26 14:14:27;;;;;;;;;;;;;;;;;;5052408;28;19972;-78
2021/01/26 14:16:53;;;;;;;;;;;;;;;;;;5051289;28;20259;-79
2021/01/26 14:19:19;;;;;;;;;;;;;;;;;;5057815;28;19932;-79
2021/01/26 14:21:45;;;;;;;;;;;;;;;;;;5054361;28;22455;-78
2021/01/26 14:24:11;;;;;;;;;;;;;;;;;;5052116;28;19957;-77
2021/01/26 14:26:37;;;;;;;;;;;;;;;;;;5052338;28;19924;-77
2021/01/26 14:29:02;;;;;;;;;;;;;;;;;;5050647;28;19925;-78
2021/01/26 14:31:28;;;;;;;;;;;;;;;;;;5052276;28;19925;-78
2021/01/26 14:33:54;;;;;;;;;;;;;;;;;;5054706;28;19925;-79
2021/01/26 14:36:20;;;;;;;;;;;;;;;;;;5053785;28;19944;-79
2021/01/26 14:38:46;;;;;;;;;;;;;;;;;;5044443;28;20021;-79
2021/01/26 14:41:12;;;;;;;;;;;;;;;;;;5047122;28;19932;-78
2021/01/26 14:43:38;;;;;;;;;;;;;;;;;;5040093;28;19936;-79
2021/01/26 14:46:04;;;;;;;;;;;;;;;;;;5048795;28;19924;-79
2021/01/26 14:48:30;;;;;;;;;;;;;;;;;;5060180;28;19994;-77
2021/01/26 14:50:56;;;;;;;;;;;;;;;;;;5049747;28;19929;-77
2021/01/26 14:53:22;;;;;;;;;;;;;;;;;;5045163;28;21713;-78
2021/01/26 14:55:48;;;;;;;;;;;;;;;;;;5045719;28;19932;-77
2021/01/26 14:58:14;;;;;;;;;;;;;;;;;;5063109;28;19924;-77
2021/01/26 15:00:39;;;;;;;;;;;;;;;;;;5053896;28;19935;-78
2021/01/26 15:03:05;;;;;;;;;;;;;;;;;;5058928;28;19924;-78
2021/01/26 15:05:31;;;;;;;;;;;;;;;;;;5049728;28;19936;-78
2021/01/26 15:07:57;;;;;;;;;;;;;;;;;;5050043;28;20383;-76
2021/01/26 15:10:23;;;;;;;;;;;;;;;;;;5047889;28;19929;-78
2021/01/26 15:12:49;;;;;;;;;;;;;;;;;;5047777;28;19925;-78
2021/01/26 15:15:15;;;;;;;;;;;;;;;;;;5061358;28;19925;-78
2021/01/26 15:17:41;;;;;;;;;;;;;;;;;;5055012;28;19998;-77
2021/01/26 15:20:07;;;;;;;;;;;;;;;;;;5056504;28;19931;-77
2021/01/26 15:22:33;;;;;;;;;;;;;;;;;;5056190;28;19924;-79
2021/01/26 15:24:59;;;;;;;;;;;;;;;;;;5050149;28;19932;-78
2021/01/26 15:27:25;;;;;;;;;;;;;;;;;;5053676;28;19928;-78
2021/01/26 15:29:51;;;;;;;;;;;;;;;;;;5046797;28;19949;-79
2021/01/26 15:32:17;;;;;;;;;;;;;;;;;;5045866;28;20062;-77
2021/01/26 15:34:43;;;;;;;;;;;;;;;;;;5040608;28;19935;-78
2021/01/26 15:37:09;;;;;;;;;;;;;;;;;;5039968;28;20364;-79
2021/01/26 15:39:35;;;;;;;;;;;;;;;;;;5032343;28;19929;-80
2021/01/26 15:42:01;;;;;;;;;;;;;;;;;;5048124;28;19938;-79
2021/01/26 15:44:27;;;;;;;;;;;;;;;;;;5053969;28;19936;-79
2021/01/26 15:46:53;;;;;;;;;;;;;;;;;;5029187;28;20175;-78
2021/01/26 15:49:19;;;;;;;;;;;;;;;;;;5039433;28;19979;-78
2021/01/26 15:51:45;;;;;;;;;;;;;;;;;;5041687;28;19978;-79
2021/01/26 15:54:11;;;;;;;;;;;;;;;;;;5046905;28;19932;-78
2021/01/26 15:56:37;;;;;;;;;;;;;;;;;;5040132;28;19932;-78
2021/01/26 15:59:03;;;;;;;;;;;;;;;;;;5047724;28;19925;-79
2021/01/26 16:01:29;;;;;;;;;;;;;;;;;;5053100;28;19924;-79
2021/01/26 16:03:55;;;;;;;;;;;;;;;;;;5048053;28;20451;-79
2021/01/26 16:06:21;;;;;;;;;;;;;;;;;;5051295;28;19932;-79
2021/01/26 16:08:47;;;;;;;;;;;;;;;;;;5058082;28;19924;-78
2021/01/26 16:11:13;;;;;;;;;;;;;;;;;;5052035;28;19979;-78
2021/01/26 16:13:38;;;;;;;;;;;;;;;;;;5044741;28;19925;-79
2021/01/26 16:16:05;;;;;;;;;;;;;;;;;;5062598;28;19932;-78
2021/01/26 16:18:31;;;;;;;;;;;;;;;;;;5047233;28;19933;-78
2021/01/26 16:20:57;;;;;;;;;;;;;;;;;;5061112;28;20348;-78
2021/01/26 16:23:23;;;;;;;;;;;;;;;;;;5056885;28;19928;-78
2021/01/26 16:25:49;;;;;;;;;;;;;;;;;;5044849;28;19929;-80
2021/01/26 16:28:14;;;;;;;;;;;;;;;;;;5054510;28;19936;-79
2021/01/26 16:30:40;;;;;;;;;;;;;;;;;;5061630;28;20269;-79
2021/01/26 16:33:06;;;;;;;;;;;;;;;;;;5051496;28;19928;-79
2021/01/26 16:35:32;;;;;;;;;;;;;;;;;;5042515;28;19928;-77